Time;durP1;ratioP1;P1;durP2;ratioP2;P2;SDS_P1;SDS_P2;PMS_P1;PMS_P2;Temp;Humidity;BMP_temperature;BMP_pressure;BME280_temperature;BME280_humidity;BME280_pressure;Samples;Min_cycle;Max_cycle;Signal;HPM_P1;HPM_P2
2021/08/11 00:00:17;;;;;;;26.35;12.15;;;;;;;22.75;72.46;99353.88;5054905;28;20056;-73
2021/08/11 00:02:43;;;;;;;23.50;10.95;;;;;;;22.69;72.19;99341.31;5053844;28;20048;-74
2021/08/11 00:05:09;;;;;;;20.67;10.65;;;;;;;22.77;72.12;99359.88;5053627;28;20135;-74
2021/08/11 00:07:35;;;;;;;23.85;10.52;;;;;;;22.75;71.80;99346.59;5053717;28;20036;-74
2021/08/11 00:10:02;;;;;;;21.02;10.63;;;;;;;22.76;71.97;99352.81;5053875;28;20094;-75
2021/08/11 00:12:28;;;;;;;21.95;11.20;;;;;;;22.75;72.32;99362.84;5054256;28;20123;-74
2021/08/11 00:14:53;;;;;;;24.25;11.63;;;;;;;22.71;72.66;99358.94;5037190;28;20147;-74
2021/08/11 00:17:20;;;;;;;15.30;11.30;;;;;;;22.70;72.91;99356.50;5037882;28;20127;-74
2021/08/11 00:19:46;;;;;;;26.05;12.10;;;;;;;22.58;73.21;99348.44;5022637;28;20044;-74
2021/08/11 00:22:13;;;;;;;19.73;11.65;;;;;;;22.63;73.62;99355.84;5056183;28;20051;-74
2021/08/11 00:24:38;;;;;;;19.15;12.15;;;;;;;22.59;73.43;99360.06;5039026;28;20131;-74
2021/08/11 00:27:04;;;;;;;20.45;10.98;;;;;;;22.55;73.61;99359.75;5055594;28;20536;-75
2021/08/11 00:29:30;;;;;;;19.08;12.38;;;;;;;22.50;74.21;99370.44;5038972;28;20044;-74
2021/08/11 00:31:56;;;;;;;21.73;11.88;;;;;;;22.46;73.87;99366.59;5038927;28;20040;-74
2021/08/11 00:34:22;;;;;;;20.00;12.93;;;;;;;22.44;74.32;99366.00;5039579;28;20040;-74
2021/08/11 00:36:48;;;;;;;26.73;13.00;;;;;;;22.34;74.17;99354.94;5042905;28;20040;-74
2021/08/11 00:39:15;;;;;;;22.63;13.65;;;;;;;22.40;74.62;99378.34;5042735;28;20072;-74
2021/08/11 00:41:44;;;;;;;19.05;13.18;;;;;;;22.37;74.63;99361.78;5039017;28;20056;-74
2021/08/11 00:44:12;;;;;;;20.30;13.15;;;;;;;22.36;74.37;99366.38;5038839;28;20040;-74
2021/08/11 00:46:43;;;;;;;21.95;12.43;;;;;;;22.32;74.55;99370.63;5055032;28;20048;-74
2021/08/11 00:49:16;;;;;;;23.45;11.88;;;;;;;22.30;74.60;99358.38;5055290;28;20048;-74
2021/08/11 00:51:44;;;;;;;19.17;10.52;;;;;;;22.24;73.81;99343.09;5038646;28;20531;-74
2021/08/11 00:54:12;;;;;;;15.75;11.00;;;;;;;22.39;73.82;99354.22;5038917;28;20456;-74
2021/08/11 00:56:47;;;;;;;16.35;10.88;;;;;;;22.40;73.64;99353.19;5055170;28;20050;-73
2021/08/11 00:59:14;;;;;;;23.10;12.73;;;;;;;22.39;73.83;99343.41;5055031;28;20052;-73
2021/08/11 01:01:42;;;;;;;21.38;12.65;;;;;;;22.40;74.20;99342.34;5055087;28;20098;-74
2021/08/11 01:04:08;;;;;;;18.13;12.25;;;;;;;22.40;74.19;99337.75;5038078;28;20052;-73
2021/08/11 01:06:37;;;;;;;24.42;13.07;;;;;;;22.43;74.12;99329.19;5054763;28;20060;-73
2021/08/11 01:09:03;;;;;;;23.70;13.68;;;;;;;22.47;74.28;99324.06;5054781;28;20087;-72
2021/08/11 01:11:33;;;;;;;21.73;13.27;;;;;;;22.51;74.30;99342.31;5055244;28;20504;-73
2021/08/11 01:14:00;;;;;;;20.58;11.88;;;;;;;22.46;73.76;99344.09;5037924;28;20504;-73
2021/08/11 01:16:27;;;;;;;23.13;11.45;;;;;;;22.37;73.81;99350.97;5038432;28;20063;-73
2021/08/11 01:18:54;;;;;;;18.17;11.35;;;;;;;22.35;73.95;99344.97;5021665;28;20083;-74
2021/08/11 01:21:26;;;;;;;23.15;12.70;;;;;;;22.37;74.10;99342.84;5054872;28;20098;-74
2021/08/11 01:24:18;;;;;;;21.85;12.15;;;;;;;22.40;74.31;99340.44;5054966;28;20051;-73
2021/08/11 01:27:22;;;;;;;19.77;12.15;;;;;;;22.35;74.30;99336.84;5070856;28;20083;-73
2021/08/11 01:30:00;;;;;;;18.98;11.63;;;;;;;22.34;74.53;99333.31;5054551;28;20067;-74
2021/08/11 01:32:52;;;;;;;20.52;12.20;;;;;;;22.36;74.36;99333.88;5054675;28;20059;-74
2021/08/11 01:35:25;;;;;;;20.65;12.35;;;;;;;22.34;74.27;99327.88;5054956;28;20068;-73
2021/08/11 01:37:54;;;;;;;19.90;12.48;;;;;;;22.34;73.94;99327.88;5037835;28;20132;-74
2021/08/11 01:40:28;;;;;;;28.20;14.55;;;;;;;22.35;74.44;99329.56;5071184;28;20108;-73
2021/08/11 01:42:57;;;;;;;20.50;13.77;;;;;;;22.34;74.45;99327.88;5037495;28;20043;-73
2021/08/11 01:45:29;;;;;;;25.95;13.40;;;;;;;22.39;74.30;99338.81;5054120;28;20496;-73
2021/08/11 01:48:08;;;;;;;27.40;13.52;;;;;;;22.36;74.46;99339.31;5054408;28;20419;-73
2021/08/11 01:50:42;;;;;;;26.73;13.70;;;;;;;22.25;74.64;99326.63;5054488;28;20500;-74
2021/08/11 01:53:14;;;;;;;23.20;13.45;;;;;;;22.33;74.52;99337.06;5054522;28;20053;-74
2021/08/11 01:55:40;;;;;;;26.42;12.75;;;;;;;22.26;74.62;99336.41;5053873;28;20050;-74
2021/08/11 01:58:07;;;;;;;22.27;13.55;;;;;;;22.28;74.52;99336.16;5053968;28;20071;-73
2021/08/11 02:00:33;;;;;;;22.65;11.27;;;;;;;22.31;74.25;99333.78;5037183;28;20055;-74
2021/08/11 02:03:04;;;;;;;15.32;12.05;;;;;;;22.31;74.26;99325.66;5054208;28;20500;-73
2021/08/11 02:05:31;;;;;;;19.70;11.93;;;;;;;22.30;74.19;99329.44;5053643;28;20420;-74
2021/08/11 02:08:05;;;;;;;20.45;11.13;;;;;;;22.36;73.62;99330.34;5054713;28;20565;-74
2021/08/11 02:10:32;;;;;;;18.50;11.23;;;;;;;22.40;73.82;99329.63;5071366;28;20515;-74
2021/08/11 02:13:00;;;;;;;16.15;10.90;;;;;;;22.41;73.86;99339.41;5037349;28;20504;-73
2021/08/11 02:15:28;;;;;;;20.30;11.70;;;;;;;22.43;73.38;99329.19;5053921;28;20127;-73
2021/08/11 02:17:56;;;;;;;26.10;11.57;;;;;;;22.51;73.24;99341.53;5036909;28;20127;-74
2021/08/11 02:20:23;;;;;;;24.00;11.45;;;;;;;22.51;72.83;99336.13;5037397;28;20416;-74
2021/08/11 02:22:53;;;;;;;21.50;11.32;;;;;;;22.50;72.67;99332.53;5038454;28;20051;-73
2021/08/11 02:25:21;;;;;;;16.92;10.57;;;;;;;22.57;72.55;99345.97;5037344;28;20052;-74
2021/08/11 02:27:58;;;;;;;26.95;10.95;;;;;;;22.60;72.49;99359.81;5036480;28;20064;-73
2021/08/11 02:30:31;;;;;;;20.05;10.52;;;;;;;22.56;72.50;99360.56;5037085;28;20047;-74
2021/08/11 02:33:18;;;;;;;30.95;12.10;;;;;;;22.56;72.86;99357.84;5036880;28;20040;-73
2021/08/11 02:35:49;;;;;;;17.17;10.75;;;;;;;22.54;72.81;99355.38;5053153;28;20052;-74
2021/08/11 02:38:30;;;;;;;16.48;10.30;;;;;;;22.57;72.65;99362.22;5036668;28;20129;-73
2021/08/11 02:41:18;;;;;;;20.65;11.55;;;;;;;22.53;72.90;99364.56;5036431;28;20463;-73
2021/08/11 02:44:04;;;;;;;23.38;11.13;;;;;;;22.51;73.04;99366.69;5052952;28;20101;-73
2021/08/11 02:46:33;;;;;;;19.83;11.13;;;;;;;22.54;72.66;99363.50;5049337;28;20527;-74
2021/08/11 02:49:02;;;;;;;19.88;10.85;;;;;;;22.48;72.75;99356.31;5069327;28;20048;-73
2021/08/11 02:51:31;;;;;;;19.95;10.68;;;;;;;22.58;72.56;99366.56;5052641;28;20064;-73
2021/08/11 02:54:08;;;;;;;20.58;11.25;;;;;;;22.62;72.49;99382.06;5068410;28;20189;-75
2021/08/11 02:56:34;;;;;;;26.15;11.02;;;;;;;22.59;72.60;99379.84;5051357;28;20488;-74
2021/08/11 02:59:01;;;;;;;23.20;11.38;;;;;;;22.60;72.66;99377.97;5051989;28;20040;-74
2021/08/11 03:01:31;;;;;;;18.20;11.27;;;;;;;22.66;72.89;99382.41;5035427;28;20040;-74
2021/08/11 03:03:58;;;;;;;17.80;11.45;;;;;;;22.71;72.66;99377.91;5052444;28;20054;-74
2021/08/11 03:06:25;;;;;;;20.70;11.55;;;;;;;22.63;72.49;99359.34;5052818;28;20135;-69
2021/08/11 03:08:52;;;;;;;16.90;11.65;;;;;;;22.79;72.79;99373.97;5057177;28;20047;-70
2021/08/11 03:11:19;;;;;;;26.90;9.73;;;;;;;22.79;71.56;99377.53;5040586;28;20036;-69
2021/08/11 03:13:46;;;;;;;21.83;11.48;;;;;;;22.85;72.35;99379.25;5073624;28;20049;-67
2021/08/11 03:16:13;;;;;;;21.80;11.45;;;;;;;22.83;72.49;99373.25;5056984;28;20051;-68
2021/08/11 03:18:39;;;;;;;23.65;11.60;;;;;;;22.95;71.88;99389.47;5073551;28;20048;-68
2021/08/11 03:21:05;;;;;;;19.98;11.15;;;;;;;22.96;71.52;99389.22;5066308;28;20163;-68
2021/08/11 03:23:32;;;;;;;22.50;11.77;;;;;;;23.04;71.95;99402.38;5050712;28;20483;-67
2021/08/11 03:25:58;;;;;;;22.90;10.95;;;;;;;23.05;71.45;99404.00;5050859;28;20467;-67
2021/08/11 03:28:24;;;;;;;19.42;11.10;;;;;;;23.07;71.27;99396.47;5052476;28;20040;-68
2021/08/11 03:30:50;;;;;;;17.75;10.90;;;;;;;23.13;71.45;99402.78;5052034;28;20338;-68
2021/08/11 03:33:16;;;;;;;25.52;10.73;;;;;;;23.00;70.17;99411.22;5051915;28;20041;-68
2021/08/11 03:35:42;;;;;;;28.77;10.93;;;;;;;22.96;71.31;99408.19;5035500;28;20059;-68
2021/08/11 03:38:08;;;;;;;22.48;11.75;;;;;;;23.00;71.62;99416.66;5051563;28;20068;-68
2021/08/11 03:40:34;;;;;;;17.60;11.02;;;;;;;23.05;71.87;99414.84;5035206;28;20079;-69
2021/08/11 03:43:01;;;;;;;22.73;10.30;;;;;;;23.06;71.08;99421.09;5035462;28;20136;-67
2021/08/11 03:45:27;;;;;;;18.05;9.63;;;;;;;23.40;69.39;99433.66;5035998;28;20123;-68
2021/08/11 03:47:55;;;;;;;20.75;8.82;;;;;;;23.65;68.38;99425.09;5052292;28;20084;-68
2021/08/11 03:50:24;;;;;;;25.13;9.40;;;;;;;23.99;66.44;99437.56;5019254;28;20114;-68
2021/08/11 03:52:52;;;;;;;23.38;8.90;;;;;;;24.38;66.22;99436.50;5035407;28;20056;-67
2021/08/11 03:55:29;;;;;;;30.58;8.93;;;;;;;24.36;65.85;99438.63;5035823;28;20045;-67
2021/08/11 03:57:55;;;;;;;31.23;9.57;;;;;;;24.64;65.17;99452.03;5066710;28;20515;-71
2021/08/11 04:00:21;;;;;;;22.40;9.07;;;;;;;24.75;64.97;99438.38;5034799;28;20040;-72
2021/08/11 04:02:47;;;;;;;22.73;8.95;;;;;;;24.80;64.48;99451.19;5051471;28;20041;-72
2021/08/11 04:05:13;;;;;;;20.52;9.20;;;;;;;24.79;64.46;99447.66;5068158;28;20161;-71
2021/08/11 04:07:38;;;;;;;16.48;8.23;;;;;;;24.68;65.03;99451.31;5035047;28;20041;-72
2021/08/11 04:10:06;;;;;;;23.70;9.35;;;;;;;24.87;65.02;99451.81;5051385;28;20060;-72
2021/08/11 04:12:33;;;;;;;25.50;8.88;;;;;;;24.82;64.77;99449.84;5068077;28;20049;-72
2021/08/11 04:14:59;;;;;;;17.58;8.75;;;;;;;24.80;64.31;99451.19;5034816;28;20051;-72
2021/08/11 04:17:25;;;;;;;16.95;8.20;;;;;;;24.77;63.84;99452.50;5051820;28;20076;-72
2021/08/11 04:19:51;;;;;;;17.75;8.65;;;;;;;24.95;64.90;99453.25;5050235;28;20505;-72
2021/08/11 04:22:17;;;;;;;17.52;8.77;;;;;;;24.99;63.34;99452.47;5034629;28;20048;-72
2021/08/11 04:24:43;;;;;;;15.60;8.25;;;;;;;25.16;63.17;99455.91;5050748;28;20064;-72
2021/08/11 04:27:08;;;;;;;18.13;7.93;;;;;;;25.27;62.12;99445.97;5051233;28;20075;-72
2021/08/11 04:29:34;;;;;;;16.05;7.65;;;;;;;25.36;60.43;99456.16;5034231;28;20120;-72
2021/08/11 04:32:00;;;;;;;16.85;6.65;;;;;;;25.45;60.11;99449.16;5018056;28;20519;-72
2021/08/11 04:34:26;;;;;;;20.60;8.32;;;;;;;25.60;62.16;99451.22;5034261;28;20124;-71
2021/08/11 04:36:51;;;;;;;19.83;8.18;;;;;;;25.70;61.56;99454.81;5050800;28;20102;-72
2021/08/11 04:39:17;;;;;;;19.63;8.70;;;;;;;25.80;61.90;99441.28;5034758;28;20041;-72
2021/08/11 04:41:43;;;;;;;13.90;6.63;;;;;;;25.82;58.61;99439.13;5050363;28;20071;-72
2021/08/11 04:44:11;;;;;;;20.20;8.75;;;;;;;25.90;61.56;99435.94;5034298;28;20421;-72
2021/08/11 04:46:38;;;;;;;20.55;8.40;;;;;;;25.97;60.62;99431.06;5034128;28;20059;-72
2021/08/11 04:49:03;;;;;;;18.38;8.27;;;;;;;26.12;60.78;99438.53;5034030;28;20033;-72
2021/08/11 04:51:29;;;;;;;17.25;7.05;;;;;;;26.06;58.70;99423.28;5034328;28;20041;-72
2021/08/11 04:53:55;;;;;;;18.70;8.43;;;;;;;26.25;59.97;99428.00;5034544;28;20619;-71
2021/08/11 04:56:21;;;;;;;20.85;8.38;;;;;;;26.34;59.58;99431.03;5033975;28;20060;-72
2021/08/11 04:58:50;;;;;;;25.45;8.95;;;;;;;26.41;59.19;99428.91;5017255;28;20045;-72
2021/08/11 05:01:15;;;;;;;16.38;7.78;;;;;;;26.48;58.95;99436.84;5050599;28;20041;-71
2021/08/11 05:03:41;;;;;;;19.33;7.60;;;;;;;26.48;58.52;99430.28;5050113;28;20059;-71
2021/08/11 05:06:08;;;;;;;17.27;7.68;;;;;;;26.44;58.44;99431.91;5033784;28;20045;-71
2021/08/11 05:08:37;;;;;;;16.65;7.90;;;;;;;26.46;58.51;99421.56;5050448;28;20052;-72
2021/08/11 05:11:03;;;;;;;14.77;7.65;;;;;;;26.45;58.00;99421.81;5033853;28;20056;-71
2021/08/11 05:13:29;;;;;;;11.40;7.30;;;;;;;26.49;58.06;99429.19;5033734;28;20037;-72
2021/08/11 05:15:55;;;;;;;21.33;8.10;;;;;;;26.52;58.31;99427.03;5033870;28;20115;-72
2021/08/11 05:18:21;;;;;;;14.38;7.57;;;;;;;26.52;58.81;99423.22;5033790;28;20480;-71
2021/08/11 05:20:47;;;;;;;16.00;8.63;;;;;;;26.52;59.60;99407.97;5049603;28;20045;-72
2021/08/11 05:23:13;;;;;;;11.88;7.07;;;;;;;26.52;59.13;99408.78;5033707;28;20489;-72
2021/08/11 05:25:38;;;;;;;15.00;6.93;;;;;;;26.48;58.21;99413.13;5032885;28;20041;-72
2021/08/11 05:28:04;;;;;;;13.35;6.78;;;;;;;26.45;57.96;99410.94;5033450;28;20037;-72
2021/08/11 05:30:30;;;;;;;33.00;8.93;;;;;;;26.43;57.03;99403.03;5032818;28;20556;-72
2021/08/11 05:32:56;;;;;;;53.00;11.60;;;;;;;26.42;56.70;99406.00;5033542;28;20094;-72
2021/08/11 05:35:21;;;;;;;55.15;11.85;;;;;;;26.38;57.34;99400.31;5033190;28;20127;-72
2021/08/11 05:37:47;;;;;;;37.03;11.00;;;;;;;26.35;56.93;99395.34;5032923;28;20048;-72
2021/08/11 05:40:16;;;;;;;32.60;10.70;;;;;;;26.31;56.87;99396.97;5016852;28;20036;-72
2021/08/11 05:42:42;;;;;;;36.25;11.75;;;;;;;26.36;57.99;99404.34;5032994;28;20479;-72
2021/08/11 05:45:08;;;;;;;30.45;11.90;;;;;;;26.37;58.39;99398.66;5033198;28;20493;-71
2021/08/11 05:47:35;;;;;;;37.92;12.65;;;;;;;26.40;58.18;99400.84;5033097;28;20139;-72
2021/08/11 05:50:03;;;;;;;25.73;10.98;;;;;;;26.43;58.53;99394.84;5032835;28;20487;-72
2021/08/11 05:52:29;;;;;;;22.10;10.18;;;;;;;26.47;57.59;99400.59;5032573;28;20041;-72
2021/08/11 05:54:54;;;;;;;20.27;8.95;;;;;;;26.52;56.67;99385.06;5032682;28;20090;-72
2021/08/11 05:57:20;;;;;;;18.85;8.13;;;;;;;26.59;56.59;99390.28;5032672;28;20053;-70
2021/08/11 05:59:46;;;;;;;14.70;7.28;;;;;;;26.66;55.03;99395.53;5016017;28;20052;-71
2021/08/11 06:02:12;;;;;;;13.80;7.78;;;;;;;26.69;55.77;99401.25;5049480;28;20094;-69
2021/08/11 06:04:45;;;;;;;20.20;8.32;;;;;;;26.81;55.84;99401.00;5032411;28;20420;-72
2021/08/11 06:07:11;;;;;;;14.55;7.85;;;;;;;26.88;56.05;99401.59;5049172;28;20459;-71
2021/08/11 06:09:37;;;;;;;15.45;7.82;;;;;;;26.91;55.47;99399.13;5049973;28;20045;-71
2021/08/11 06:12:03;;;;;;;14.38;7.60;;;;;;;26.89;55.62;99393.13;5032505;28;20102;-71
2021/08/11 06:14:30;;;;;;;17.10;7.85;;;;;;;26.84;55.85;99393.13;5032789;28;20044;-71
2021/08/11 06:16:55;;;;;;;16.63;7.65;;;;;;;26.79;56.23;99393.09;5032893;28;20048;-73
2021/08/11 06:19:21;;;;;;;14.68;7.75;;;;;;;26.72;56.37;99387.09;5016171;28;20049;-72
2021/08/11 06:21:47;;;;;;;14.15;7.25;;;;;;;26.63;56.98;99386.00;5032355;28;20095;-72
2021/08/11 06:24:13;;;;;;;12.98;7.32;;;;;;;26.64;56.52;99390.34;5032429;28;20045;-73
2021/08/11 06:26:38;;;;;;;16.38;7.78;;;;;;;26.64;57.01;99392.22;4998772;28;20056;-71
2021/08/11 06:29:04;;;;;;;17.00;7.40;;;;;;;26.64;57.06;99393.06;5032473;28;20041;-71
2021/08/11 06:31:30;;;;;;;13.77;7.18;;;;;;;26.65;56.66;99391.97;5032526;28;20417;-70
2021/08/11 06:33:56;;;;;;;14.82;6.93;;;;;;;26.67;56.43;99397.16;5016165;28;20053;-78
2021/08/11 06:36:22;;;;;;;14.98;7.43;;;;;;;26.68;56.73;99399.59;5015721;28;20048;-74
2021/08/11 06:38:48;;;;;;;19.60;7.05;;;;;;;26.66;56.42;99403.69;5032086;28;20563;-75
2021/08/11 06:41:17;;;;;;;13.77;6.60;;;;;;;26.63;56.65;99396.03;5016902;28;20044;-76
2021/08/11 06:43:53;;;;;;;31.38;7.47;;;;;;;26.55;55.74;99393.81;5044313;28;20041;-75
2021/08/11 06:46:19;;;;;;;22.38;6.82;;;;;;;26.20;56.63;99387.13;5017498;28;20048;-76
2021/08/11 06:48:47;;;;;;;20.52;7.45;;;;;;;26.05;56.87;99388.94;5015546;28;20079;-73
2021/08/11 06:51:13;;;;;;;17.85;7.70;;;;;;;25.85;58.18;99381.47;5039678;28;20068;-76
2021/08/11 06:53:38;;;;;;;16.60;7.05;;;;;;;25.65;58.64;99383.22;5035470;28;20551;-68
2021/08/11 06:56:05;;;;;;;18.90;7.97;;;;;;;25.49;59.62;99395.09;5051424;28;20507;-69
2021/08/11 06:58:30;;;;;;;14.85;7.85;;;;;;;25.26;60.16;99384.53;5030723;28;20171;-69
2021/08/11 07:00:59;;;;;;;16.13;7.63;;;;;;;25.21;61.08;99392.63;5035315;28;20041;-69
2021/08/11 07:03:25;;;;;;;11.88;8.00;;;;;;;25.12;61.26;99384.13;5050781;28;20040;-69
2021/08/11 07:05:51;;;;;;;16.67;9.02;;;;;;;25.02;62.43;99386.75;5066624;28;20070;-68
2021/08/11 07:08:17;;;;;;;20.13;9.57;;;;;;;24.95;62.74;99385.31;5067865;28;20047;-68
2021/08/11 07:10:43;;;;;;;20.88;9.52;;;;;;;24.89;62.69;99389.88;5033314;28;20033;-68
2021/08/11 07:13:20;;;;;;;14.80;8.98;;;;;;;24.86;63.33;99384.97;5067222;28;20048;-74
2021/08/11 07:15:46;;;;;;;14.38;7.75;;;;;;;25.11;63.58;99397.97;5036427;28;20041;-71
2021/08/11 07:18:16;;;;;;;14.48;7.93;;;;;;;25.31;62.66;99395.44;5034818;28;20090;-72
2021/08/11 07:20:42;;;;;;;13.07;8.18;;;;;;;25.48;62.16;99402.41;5068055;28;20051;-73
2021/08/11 07:23:08;;;;;;;19.98;8.38;;;;;;;25.57;61.74;99379.09;5051796;28;20101;-72
2021/08/11 07:25:33;;;;;;;19.15;8.85;;;;;;;25.74;61.70;99381.66;5050978;28;20127;-68
2021/08/11 07:27:59;;;;;;;28.13;12.48;;;;;;;25.95;60.77;99395.16;5035268;28;20512;-69
2021/08/11 07:30:25;;;;;;;27.52;11.63;;;;;;;25.97;60.35;99375.84;5035318;28;20041;-69
2021/08/11 07:32:51;;;;;;;30.17;11.40;;;;;;;26.13;60.20;99391.19;5069257;28;20067;-71
2021/08/11 07:35:19;;;;;;;43.35;16.17;;;;;;;26.15;60.13;99384.41;5068375;28;20048;-72
2021/08/11 07:37:50;;;;;;;25.98;12.50;;;;;;;26.32;59.38;99395.09;5034310;28;20037;-70
2021/08/11 07:40:17;;;;;;;31.50;12.55;;;;;;;26.34;59.62;99376.56;5051400;28;20040;-71
2021/08/11 07:42:43;;;;;;;26.15;12.40;;;;;;;26.52;58.66;99397.06;5051552;28;20047;-70
2021/08/11 07:45:10;;;;;;;26.88;12.45;;;;;;;26.58;58.65;99394.09;5050928;28;20048;-70
2021/08/11 07:47:36;;;;;;;24.63;12.60;;;;;;;26.65;58.39;99399.34;5066661;28;20036;-70
2021/08/11 07:50:05;;;;;;;19.77;9.75;;;;;;;26.69;57.55;99397.72;5066468;28;20041;-70
2021/08/11 07:52:31;;;;;;;19.50;10.13;;;;;;;26.71;57.37;99388.16;5063731;28;20075;-71
2021/08/11 07:54:56;;;;;;;17.88;9.95;;;;;;;26.70;56.56;99382.97;5035266;28;20072;-70
2021/08/11 07:57:22;;;;;;;19.58;10.07;;;;;;;26.67;56.71;99373.47;5053290;28;20040;-71
2021/08/11 07:59:48;;;;;;;26.02;10.43;;;;;;;26.78;57.14;99387.91;5069585;28;20033;-73
2021/08/11 08:02:14;;;;;;;21.00;10.63;;;;;;;26.79;57.30;99378.66;5053111;28;20048;-71
2021/08/11 08:04:43;;;;;;;25.80;11.95;;;;;;;26.77;57.27;99359.03;5069481;28;20127;-72
2021/08/11 08:07:14;;;;;;;40.38;16.90;;;;;;;26.86;57.70;99366.44;5052095;28;20071;-72
2021/08/11 08:09:40;;;;;;;54.33;20.85;;;;;;;26.99;57.17;99384.13;5044426;28;20072;-69
2021/08/11 08:12:06;;;;;;;54.47;20.15;;;;;;;27.10;57.07;99383.91;5070813;28;20048;-71
2021/08/11 08:14:33;;;;;;;35.10;15.98;;;;;;;27.16;56.71;99374.63;5069403;28;20068;-71
2021/08/11 08:16:59;;;;;;;69.07;24.25;;;;;;;27.28;56.78;99380.66;5069261;28;20491;-68
2021/08/11 08:19:24;;;;;;;46.95;17.52;;;;;;;27.35;56.30;99375.78;5035721;28;20052;-70
2021/08/11 08:21:50;;;;;;;50.90;19.75;;;;;;;27.41;56.15;99371.94;5033333;28;20032;-70
2021/08/11 08:24:16;;;;;;;26.30;14.02;;;;;;;27.44;55.68;99363.22;5050840;28;20045;-71
2021/08/11 08:26:43;;;;;;;25.98;12.57;;;;;;;27.44;55.65;99365.94;5068916;28;20127;-70
2021/08/11 08:29:09;;;;;;;28.13;12.30;;;;;;;27.43;55.44;99361.56;5031244;28;20403;-73
2021/08/11 08:31:34;;;;;;;18.48;9.48;;;;;;;27.42;55.57;99376.28;5035131;28;20044;-72
2021/08/11 08:34:00;;;;;;;25.52;10.30;;;;;;;27.43;55.34;99363.50;5068519;28;20558;-71
2021/08/11 08:36:26;;;;;;;19.50;10.23;;;;;;;27.44;55.30;99370.56;5040677;28;20036;-72
2021/08/11 08:38:52;;;;;;;17.08;9.68;;;;;;;27.40;55.37;99366.75;5067895;28;20556;-71
2021/08/11 08:41:18;;;;;;;23.02;11.35;;;;;;;27.37;55.63;99364.59;5037789;28;20973;-73
2021/08/11 08:43:43;;;;;;;18.35;10.30;;;;;;;27.35;55.63;99366.75;5051151;28;20158;-74
2021/08/11 08:46:10;;;;;;;18.67;10.55;;;;;;;27.28;55.90;99364.28;5020671;28;20051;-78
2021/08/11 08:48:42;;;;;;;18.17;9.10;;;;;;;27.20;55.86;99358.56;5068310;28;20075;-73
2021/08/11 08:51:13;;;;;;;19.55;10.63;;;;;;;27.13;56.28;99363.44;5069559;28;20111;-74
2021/08/11 08:53:43;;;;;;;19.33;9.90;;;;;;;27.07;56.76;99359.06;5051797;28;20040;-72
2021/08/11 08:56:09;;;;;;;;;;;;;;;27.07;56.80;99359.91;5068206;28;20045;-73
2021/08/11 08:58:35;;;;;;;19.83;9.80;;;;;;;27.06;56.74;99357.44;5033316;28;19970;-72
2021/08/11 09:01:01;;;;;;;16.83;10.25;;;;;;;27.09;57.38;99354.19;5067897;28;20052;-71
2021/08/11 09:03:27;;;;;;;16.05;10.20;;;;;;;27.10;56.98;99358.53;5034533;28;20037;-72
2021/08/11 09:05:52;;;;;;;15.38;10.48;;;;;;;27.05;57.17;99353.88;5050389;28;20044;-72
2021/08/11 09:08:19;;;;;;;17.27;11.10;;;;;;;27.02;57.20;99346.25;5051840;28;20704;-74
2021/08/11 09:10:45;;;;;;;17.23;10.82;;;;;;;27.04;57.27;99349.53;5069210;28;20096;-74
2021/08/11 09:13:19;;;;;;;22.20;11.02;;;;;;;27.08;56.83;99355.25;5070591;28;20052;-73
2021/08/11 09:15:48;;;;;;;18.73;9.45;;;;;;;27.06;56.80;99352.00;5051995;28;20041;-73
2021/08/11 09:18:18;;;;;;;17.67;10.68;;;;;;;27.06;56.68;99349.25;5069096;28;20113;-72
2021/08/11 09:20:48;;;;;;;13.73;9.20;;;;;;;27.06;56.57;99355.50;5068571;28;20045;-73
2021/08/11 09:23:15;;;;;;;;;;;;;;;27.05;56.37;99347.59;5069623;28;20434;-73
2021/08/11 09:26:01;;;;;;;16.70;8.90;;;;;;;27.03;56.38;99344.34;5070086;28;19962;-80
2021/08/11 09:28:33;;;;;;;14.75;9.07;;;;;;;26.89;56.76;99330.44;5027820;28;20044;-72
2021/08/11 09:30:59;;;;;;;16.42;8.90;;;;;;;26.84;56.68;99335.06;5066541;28;20190;-73
2021/08/11 09:33:26;;;;;;;15.20;8.73;;;;;;;26.87;56.76;99348.13;5068390;28;20111;-76
2021/08/11 09:35:53;;;;;;;16.50;10.05;;;;;;;26.72;57.18;99334.50;5051676;28;20440;-73
2021/08/11 09:38:19;;;;;;;17.13;10.10;;;;;;;26.65;57.75;99336.69;5068566;28;20033;-73
2021/08/11 09:40:46;;;;;;;16.02;9.50;;;;;;;26.73;58.30;99356.03;5035371;28;20412;-73
2021/08/11 09:43:31;;;;;;;21.63;9.88;;;;;;;26.80;59.12;99363.94;5068514;28;20482;-72
2021/08/11 09:45:57;;;;;;;15.70;11.00;;;;;;;26.78;58.53;99361.50;5069228;28;20064;-71
2021/08/11 09:48:25;;;;;;;19.23;10.52;;;;;;;26.76;58.91;99365.56;5070936;28;20075;-72
2021/08/11 09:51:00;;;;;;;17.52;10.70;;;;;;;26.76;59.13;99365.56;5051138;28;20051;-72
2021/08/11 09:53:28;;;;;;;13.82;10.75;;;;;;;26.75;59.21;99369.38;5069639;28;20155;-70
2021/08/11 09:55:56;;;;;;;23.77;11.75;;;;;;;26.70;59.56;99372.09;5052046;28;20052;-74
2021/08/11 09:58:22;;;;;;;17.55;10.60;;;;;;;26.70;59.56;99375.63;5051760;28;20037;-74
2021/08/11 10:00:47;;;;;;;17.95;10.35;;;;;;;26.66;60.02;99376.44;5018294;28;20559;-72
2021/08/11 10:03:13;;;;;;;19.50;12.02;;;;;;;26.63;60.03;99385.13;5068082;28;20036;-74
2021/08/11 10:05:39;;;;;;;18.30;11.98;;;;;;;26.43;60.04;99375.78;5068256;28;20044;-70
2021/08/11 10:08:05;;;;;;;17.40;10.98;;;;;;;26.14;61.04;99371.03;5026836;28;20147;-72
2021/08/11 10:10:48;;;;;;;18.75;11.55;;;;;;;25.89;62.55;99373.59;5051745;28;20412;-71
2021/08/11 10:13:18;;;;;;;22.70;11.65;;;;;;;25.73;63.06;99356.34;5050965;28;20044;-72
2021/08/11 10:15:45;;;;;;;;;;;;;;;25.64;62.07;99371.53;5034746;28;20533;-71
2021/08/11 10:18:13;;;;;;;14.25;10.18;;;;;;;25.50;62.85;99372.22;5033034;28;19920;-71
2021/08/11 10:20:40;;;;;;;17.27;9.38;;;;;;;25.43;63.12;99374.38;5048005;28;20095;-71
2021/08/11 10:23:06;;;;;;;15.27;9.43;;;;;;;25.27;63.52;99372.56;5050848;28;20139;-72
2021/08/11 10:25:32;;;;;;;14.05;10.25;;;;;;;25.17;63.80;99370.56;5050074;28;20120;-72
2021/08/11 10:27:58;;;;;;;26.42;12.32;;;;;;;25.08;64.44;99365.88;5068001;28;20074;-71
2021/08/11 10:30:25;;;;;;;16.42;9.85;;;;;;;25.01;64.27;99368.81;5069233;28;20048;-71
2021/08/11 10:32:51;;;;;;;15.32;9.95;;;;;;;24.89;64.49;99362.72;5032646;28;20036;-71
2021/08/11 10:35:17;;;;;;;21.83;10.52;;;;;;;24.79;64.82;99355.28;5031008;28;20048;-73
2021/08/11 10:37:43;;;;;;;21.40;10.80;;;;;;;24.74;65.11;99354.41;5066452;28;20066;-71
2021/08/11 10:40:09;;;;;;;16.58;10.70;;;;;;;24.78;65.55;99372.66;5065085;28;20047;-71
2021/08/11 10:42:35;;;;;;;17.33;10.43;;;;;;;24.72;65.89;99373.66;5049345;28;20138;-71
2021/08/11 10:45:01;;;;;;;17.63;10.55;;;;;;;24.65;65.92;99366.75;5033390;28;20055;-71
2021/08/11 10:47:32;;;;;;;21.58;13.50;;;;;;;24.59;66.12;99356.91;5050155;28;20067;-73
2021/08/11 10:50:00;;;;;;;26.70;10.85;;;;;;;24.64;66.33;99368.69;5044972;28;20508;-69
2021/08/11 10:52:26;;;;;;;23.30;11.90;;;;;;;24.57;66.53;99365.31;5047276;28;20044;-73
2021/08/11 10:55:01;;;;;;;21.58;11.10;;;;;;;24.43;66.22;99346.97;5048346;28;20040;-74
2021/08/11 10:57:39;;;;;;;16.48;10.80;;;;;;;24.45;66.51;99361.94;5066710;28;20036;-74
2021/08/11 11:00:20;;;;;;;13.00;9.82;;;;;;;24.59;66.56;99357.75;5063911;28;20040;-73
2021/08/11 11:02:48;;;;;;;20.88;8.85;;;;;;;24.79;65.70;99347.13;5065122;28;20502;-73
2021/08/11 11:05:20;;;;;;;15.70;8.10;;;;;;;25.11;63.59;99355.28;5050530;28;20488;-74
2021/08/11 11:08:16;;;;;;;15.57;7.78;;;;;;;25.43;62.41;99330.84;5064116;28;20385;-74
2021/08/11 11:10:45;;;;;;;16.50;8.25;;;;;;;25.59;61.46;99322.53;5043307;28;20076;-74
2021/08/11 11:13:23;;;;;;;11.75;7.15;;;;;;;25.85;60.54;99334.38;5027715;28;20451;-72
2021/08/11 11:15:57;;;;;;;13.35;7.57;;;;;;;25.88;60.11;99306.63;5064926;28;20040;-72
2021/08/11 11:18:26;;;;;;;13.00;8.00;;;;;;;25.94;59.94;99302.88;5065211;28;20119;-71
2021/08/11 11:20:55;;;;;;;10.33;8.00;;;;;;;26.13;59.68;99309.50;5065395;28;20039;-73
2021/08/11 11:23:36;;;;;;;10.02;7.55;;;;;;;26.15;59.12;99307.34;5047153;28;20090;-71
2021/08/11 11:26:10;;;;;;;14.27;7.70;;;;;;;26.19;59.71;99297.53;5048130;28;20048;-71